Time;durP1;ratioP1;P1;durP2;ratioP2;P2;SDS_P1;SDS_P2;PMS_P1;PMS_P2;Temp;Humidity;BMP_temperature;BMP_pressure;BME280_temperature;BME280_humidity;BME280_pressure;Samples;Min_cycle;Max_cycle;Signal;HPM_P1;HPM_P2
2023/11/28 00:00:38;;;;;;;4.00;3.50;;;0.90;99.90;;;;;;5018971;28;20460;-68
2023/11/28 00:03:06;;;;;;;3.87;3.43;;;0.90;99.90;;;;;;5021281;28;20467;-68
2023/11/28 00:05:33;;;;;;;5.17;4.10;;;0.90;99.90;;;;;;5020801;28;20459;-69
2023/11/28 00:08:00;;;;;;;4.60;4.07;;;0.90;99.90;;;;;;5045242;28;20501;-70
2023/11/28 00:10:28;;;;;;;5.03;4.13;;;0.90;99.90;;;;;;5060121;28;20537;-71
2023/11/28 00:12:56;;;;;;;4.47;3.73;;;0.80;99.90;;;;;;5060181;28;20481;-71
2023/11/28 00:15:24;;;;;;;4.40;3.97;;;0.90;99.90;;;;;;5059669;28;20464;-72
2023/11/28 00:17:53;;;;;;;4.90;4.33;;;0.80;99.90;;;;;;5060036;28;20556;-70
2023/11/28 00:20:21;;;;;;;4.70;4.03;;;0.80;99.90;;;;;;5059927;28;20461;-72
2023/11/28 00:22:48;;;;;;;4.70;4.10;;;0.80;99.90;;;;;;5059537;28;20458;-71
2023/11/28 00:25:18;;;;;;;4.30;3.90;;;0.80;99.90;;;;;;5059822;28;20529;-69
2023/11/28 00:27:45;;;;;;;4.80;4.13;;;0.80;99.90;;;;;;5059871;28;20755;-71
2023/11/28 00:30:14;;;;;;;5.87;5.07;;;0.80;99.90;;;;;;5059767;28;20465;-70
2023/11/28 00:32:42;;;;;;;5.10;4.20;;;0.90;99.90;;;;;;5059204;28;20462;-70
2023/11/28 00:35:11;;;;;;;4.90;4.03;;;0.90;99.90;;;;;;5059381;28;20560;-69
2023/11/28 00:37:39;;;;;;;5.13;4.60;;;0.80;99.90;;;;;;5059517;28;20564;-69
2023/11/28 00:40:11;;;;;;;6.50;4.60;;;0.80;99.90;;;;;;5059849;28;20524;-68
2023/11/28 00:42:38;;;;;;;4.90;4.40;;;0.80;99.90;;;;;;5059320;28;20812;-68
2023/11/28 00:45:07;;;;;;;5.17;4.37;;;0.80;99.90;;;;;;5059446;28;20931;-68
2023/11/28 00:47:35;;;;;;;4.83;3.87;;;0.80;99.90;;;;;;5059277;28;20771;-68
2023/11/28 00:50:02;;;;;;;4.73;4.23;;;0.80;99.90;;;;;;5059560;28;20465;-68
2023/11/28 00:52:30;;;;;;;4.60;4.10;;;0.70;99.90;;;;;;5058953;28;20480;-66
2023/11/28 00:54:58;;;;;;;4.90;4.40;;;0.70;99.90;;;;;;5059562;28;20465;-68
2023/11/28 00:57:25;;;;;;;4.40;3.97;;;0.70;99.90;;;;;;5059103;28;20460;-68
2023/11/28 00:59:52;;;;;;;4.90;4.30;;;0.70;99.90;;;;;;5059132;28;20556;-68
2023/11/28 01:02:20;;;;;;;3.93;3.53;;;0.70;99.90;;;;;;5058954;28;20462;-67
2023/11/28 01:04:47;;;;;;;4.90;4.40;;;0.70;99.90;;;;;;5058657;28;20462;-67
2023/11/28 01:07:15;;;;;;;5.80;4.50;;;0.70;99.90;;;;;;5058405;28;20870;-67
2023/11/28 01:09:43;;;;;;;5.63;5.10;;;0.80;99.90;;;;;;5058775;28;20469;-67
2023/11/28 01:12:11;;;;;;;5.40;4.90;;;0.70;99.90;;;;;;5057701;28;20466;-67
2023/11/28 01:14:38;;;;;;;5.37;4.87;;;0.80;99.90;;;;;;5058670;28;20933;-65
2023/11/28 01:17:07;;;;;;;5.93;5.00;;;0.70;99.90;;;;;;5058649;28;20740;-65
2023/11/28 01:19:34;;;;;;;5.80;5.20;;;0.80;99.90;;;;;;5058713;28;20444;-67
2023/11/28 01:22:02;;;;;;;5.20;4.70;;;0.80;99.90;;;;;;5058789;28;20910;-67
2023/11/28 01:24:29;;;;;;;6.17;5.57;;;0.70;99.90;;;;;;5059047;28;20477;-67
2023/11/28 01:26:58;;;;;;;6.80;5.20;;;0.70;99.90;;;;;;5058434;28;20908;-67
2023/11/28 01:29:25;;;;;;;5.40;4.90;;;0.70;99.90;;;;;;5058368;28;20785;-67
2023/11/28 01:31:52;;;;;;;5.67;5.00;;;0.70;99.90;;;;;;5058851;28;20437;-67
2023/11/28 01:34:20;;;;;;;5.67;5.10;;;0.70;99.90;;;;;;5058445;28;20880;-67
2023/11/28 01:36:47;;;;;;;4.63;4.20;;;0.70;99.90;;;;;;5058391;28;20465;-67
2023/11/28 01:39:15;;;;;;;4.30;3.90;;;0.80;99.90;;;;;;5058354;28;20501;-67
2023/11/28 01:41:46;;;;;;;5.00;4.50;;;0.70;99.90;;;;;;5058533;28;20437;-67
2023/11/28 01:44:15;;;;;;;4.40;4.00;;;0.70;99.90;;;;;;5058238;28;20458;-67
2023/11/28 01:46:44;;;;;;;4.50;4.10;;;0.80;99.90;;;;;;5057633;28;20465;-67
2023/11/28 01:49:12;;;;;;;4.30;3.90;;;0.80;99.90;;;;;;5057765;28;20951;-67
2023/11/28 01:51:40;;;;;;;3.83;3.53;;;0.70;99.90;;;;;;5057955;28;20465;-68
2023/11/28 01:54:08;;;;;;;5.07;4.57;;;0.70;99.90;;;;;;5058368;28;20466;-67
2023/11/28 01:56:37;;;;;;;4.00;3.60;;;0.70;99.90;;;;;;5057449;28;20557;-67
2023/11/28 01:59:07;;;;;;;4.33;3.80;;;0.70;99.90;;;;;;5057784;28;20484;-67
2023/11/28 02:01:36;;;;;;;4.43;4.00;;;0.70;99.90;;;;;;5057610;28;20466;-68
2023/11/28 02:04:03;;;;;;;5.00;4.50;;;0.70;99.90;;;;;;5057725;28;20781;-67
2023/11/28 02:06:30;;;;;;;4.00;3.60;;;0.60;99.90;;;;;;5057700;28;20469;-67
2023/11/28 02:08:57;;;;;;;3.97;3.57;;;0.60;99.90;;;;;;5057201;28;20494;-66
2023/11/28 02:11:25;;;;;;;5.07;4.57;;;0.60;99.90;;;;;;5057511;28;20433;-67
2023/11/28 02:13:52;;;;;;;5.00;4.43;;;0.70;99.90;;;;;;5056945;28;20508;-67
2023/11/28 02:16:19;;;;;;;4.90;4.50;;;0.60;99.90;;;;;;5057794;28;20466;-66
2023/11/28 02:18:48;;;;;;;5.50;5.00;;;0.60;99.90;;;;;;5057057;28;20473;-68
2023/11/28 02:21:15;;;;;;;5.60;5.10;;;0.60;99.90;;;;;;5057487;28;20494;-67
2023/11/28 02:23:43;;;;;;;5.60;5.10;;;0.70;99.90;;;;;;5056935;28;20465;-67
2023/11/28 02:26:22;;;;;;;6.53;5.50;;;0.60;99.90;;;;;;5057376;28;20556;-68
2023/11/28 02:28:49;;;;;;;6.00;5.50;;;0.60;99.90;;;;;;5057112;28;20686;-66
2023/11/28 02:31:17;;;;;;;5.77;5.27;;;0.60;99.90;;;;;;5057298;28;20458;-67
2023/11/28 02:33:44;;;;;;;5.70;5.20;;;0.60;99.90;;;;;;5057473;28;20539;-65
2023/11/28 02:36:12;;;;;;;6.47;5.87;;;0.50;99.90;;;;;;5057324;28;20895;-67
2023/11/28 02:38:39;;;;;;;6.10;5.60;;;0.50;99.90;;;;;;5057428;28;20464;-66
2023/11/28 02:41:06;;;;;;;6.57;5.97;;;0.50;99.90;;;;;;5057100;28;20476;-67
2023/11/28 02:43:35;;;;;;;7.67;6.97;;;0.50;99.90;;;;;;5056801;28;20840;-68
2023/11/28 02:46:02;;;;;;;10.13;9.23;;;0.50;99.90;;;;;;5057053;28;20442;-66
2023/11/28 02:48:30;;;;;;;10.37;9.47;;;0.50;99.90;;;;;;5057587;28;20781;-67
2023/11/28 02:50:57;;;;;;;11.87;10.77;;;0.50;99.90;;;;;;5057161;28;20454;-66
2023/11/28 02:53:28;;;;;;;13.37;12.13;;;0.50;99.90;;;;;;5057001;28;20927;-68
2023/11/28 02:55:55;;;;;;;13.27;11.97;;;0.50;99.90;;;;;;5057001;28;20461;-68
2023/11/28 02:58:22;;;;;;;12.27;11.10;;;0.50;99.90;;;;;;5057043;28;20454;-67
2023/11/28 03:00:51;;;;;;;11.73;10.63;;;0.50;99.90;;;;;;5056537;28;20465;-68
2023/11/28 03:03:18;;;;;;;13.30;12.00;;;0.50;99.90;;;;;;5057094;28;20824;-68
2023/11/28 03:05:45;;;;;;;12.47;11.27;;;0.40;99.90;;;;;;5056847;28;20924;-66
2023/11/28 03:08:12;;;;;;;13.07;11.77;;;0.40;99.90;;;;;;5056179;28;20476;-67
2023/11/28 03:10:40;;;;;;;11.67;10.57;;;0.40;99.90;;;;;;5056393;28;20556;-67
2023/11/28 03:13:07;;;;;;;11.50;10.40;;;0.40;99.90;;;;;;5056796;28;20800;-67
2023/11/28 03:15:34;;;;;;;13.37;12.10;;;0.40;99.90;;;;;;5056578;28;20555;-67
2023/11/28 03:18:03;;;;;;;13.77;12.47;;;0.40;99.90;;;;;;5056827;28;20910;-65
2023/11/28 03:20:30;;;;;;;13.80;12.40;;;0.40;99.90;;;;;;5057307;28;20518;-67
2023/11/28 03:22:58;;;;;;;11.83;10.73;;;0.40;99.90;;;;;;5056669;28;20505;-67
2023/11/28 03:25:25;;;;;;;14.20;12.80;;;0.40;99.90;;;;;;5056651;28;20458;-67
2023/11/28 03:27:53;;;;;;;15.13;13.63;;;0.40;99.90;;;;;;5056773;28;20462;-67
2023/11/28 03:30:22;;;;;;;13.53;12.33;;;0.40;99.90;;;;;;5056312;28;20462;-66
2023/11/28 03:32:49;;;;;;;16.17;14.57;;;0.40;99.90;;;;;;5056594;28;20462;-68
2023/11/28 03:35:18;;;;;;;15.90;14.47;;;0.30;99.90;;;;;;5058583;28;20876;-67
2023/11/28 03:37:46;;;;;;;16.90;15.10;;;0.30;99.90;;;;;;5061099;28;20468;-67
2023/11/28 03:40:14;;;;;;;17.40;15.80;;;0.30;99.90;;;;;;5060668;28;20740;-66
2023/11/28 03:42:42;;;;;;;17.87;16.27;;;0.30;99.90;;;;;;5060430;28;20466;-67
2023/11/28 03:45:10;;;;;;;18.00;16.30;;;0.30;99.90;;;;;;5059954;28;20465;-67
2023/11/28 03:47:37;;;;;;;17.50;15.90;;;0.30;99.90;;;;;;5060736;28;20458;-66
2023/11/28 03:50:04;;;;;;;16.23;14.67;;;0.30;99.90;;;;;;5060362;28;20503;-66
2023/11/28 03:52:33;;;;;;;14.33;13.03;;;0.30;99.90;;;;;;5060575;28;20727;-66
2023/11/28 03:55:00;;;;;;;14.67;13.30;;;0.30;99.90;;;;;;5060094;28;20465;-65
2023/11/28 03:57:27;;;;;;;14.03;12.80;;;0.30;99.90;;;;;;5060432;28;20845;-66
2023/11/28 03:59:55;;;;;;;14.83;13.53;;;0.30;99.90;;;;;;5060379;28;20910;-66
2023/11/28 04:02:22;;;;;;;14.57;13.30;;;0.40;99.90;;;;;;5060302;28;20458;-66
2023/11/28 04:04:49;;;;;;;14.60;13.30;;;0.40;99.90;;;;;;5060099;28;20555;-67
2023/11/28 04:07:17;;;;;;;16.23;14.73;;;0.40;99.90;;;;;;5060004;28;20791;-66
2023/11/28 04:09:45;;;;;;;12.20;11.17;;;0.40;99.90;;;;;;5060026;28;20548;-66
2023/11/28 04:12:13;;;;;;;12.60;11.50;;;0.40;99.90;;;;;;5060008;28;20467;-66
2023/11/28 04:14:41;;;;;;;12.60;11.50;;;0.40;99.90;;;;;;5059658;28;20504;-66
2023/11/28 04:17:08;;;;;;;12.00;10.90;;;0.40;99.90;;;;;;5059968;28;20466;-66
2023/11/28 04:19:35;;;;;;;13.70;12.47;;;0.30;99.90;;;;;;5060031;28;20480;-66
2023/11/28 04:22:02;;;;;;;14.03;12.73;;;0.40;99.90;;;;;;5059948;28;20458;-64
2023/11/28 04:24:30;;;;;;;12.43;11.33;;;0.40;99.90;;;;;;5059087;28;20460;-66
2023/11/28 04:26:58;;;;;;;13.10;11.93;;;0.30;99.90;;;;;;5059437;28;20471;-66
2023/11/28 04:29:25;;;;;;;11.40;10.40;;;0.30;99.90;;;;;;5059360;28;20497;-66
2023/11/28 04:31:53;;;;;;;10.77;9.77;;;0.30;99.90;;;;;;5059273;28;20488;-65
2023/11/28 04:34:20;;;;;;;10.63;9.73;;;0.30;99.90;;;;;;5059754;28;20458;-66
2023/11/28 04:36:47;;;;;;;12.13;8.83;;;0.30;99.90;;;;;;5059334;28;20462;-66
2023/11/28 04:39:14;;;;;;;11.40;10.40;;;0.40;99.90;;;;;;5059573;28;20730;-66
2023/11/28 04:41:42;;;;;;;10.30;9.40;;;0.30;99.90;;;;;;5059379;28;20470;-67
2023/11/28 04:44:10;;;;;;;13.10;11.80;;;0.30;99.90;;;;;;5059688;28;20458;-66
2023/11/28 04:46:37;;;;;;;17.10;15.53;;;0.30;99.90;;;;;;5058908;28;20458;-66
2023/11/28 04:49:05;;;;;;;16.63;15.03;;;0.20;99.90;;;;;;5058978;28;20462;-66
2023/11/28 04:51:32;;;;;;;14.10;12.80;;;0.30;99.90;;;;;;5059210;28;20798;-66
2023/11/28 04:53:59;;;;;;;14.70;13.37;;;0.30;99.90;;;;;;5059419;28;20468;-66
2023/11/28 04:56:26;;;;;;;15.60;14.20;;;0.40;99.90;;;;;;5059386;28;20472;-66
2023/11/28 04:58:54;;;;;;;17.80;16.10;;;0.30;99.90;;;;;;5058884;28;20458;-66
2023/11/28 05:01:24;;;;;;;17.57;15.87;;;0.30;99.90;;;;;;5058907;28;20523;-66
2023/11/28 05:03:51;;;;;;;19.10;17.27;;;0.40;99.90;;;;;;5058974;28;20451;-66
2023/11/28 05:06:19;;;;;;;17.57;15.97;;;0.40;99.90;;;;;;5059437;28;20440;-66
2023/11/28 05:08:46;;;;;;;16.13;14.67;;;0.40;99.90;;;;;;5058207;28;20544;-66
2023/11/28 05:11:13;;;;;;;16.63;15.03;;;0.40;99.90;;;;;;5058959;28;20468;-66
2023/11/28 05:13:40;;;;;;;15.90;14.40;;;0.40;99.90;;;;;;5058994;28;20561;-66
2023/11/28 05:16:08;;;;;;;14.73;13.43;;;0.40;99.90;;;;;;5059026;28;20501;-68
2023/11/28 05:18:37;;;;;;;15.00;13.40;;;0.50;99.90;;;;;;5059060;28;20440;-67
2023/11/28 05:21:05;;;;;;;14.87;13.37;;;0.40;99.90;;;;;;5058440;28;20464;-68
2023/11/28 05:23:32;;;;;;;15.37;13.87;;;0.30;99.90;;;;;;5058534;28;20485;-68
2023/11/28 05:26:00;;;;;;;16.80;15.37;;;0.40;99.90;;;;;;5058897;28;20816;-68
2023/11/28 05:28:27;;;;;;;14.10;12.90;;;0.40;99.90;;;;;;5058509;28;20462;-68
2023/11/28 05:30:54;;;;;;;14.47;13.17;;;0.50;99.90;;;;;;5058287;28;20836;-68
2023/11/28 05:33:21;;;;;;;15.23;13.77;;;0.50;99.90;;;;;;5058170;28;20469;-68
2023/11/28 05:35:50;;;;;;;15.43;14.03;;;0.50;99.90;;;;;;5058526;28;20454;-68
2023/11/28 05:38:17;;;;;;;15.40;13.80;;;0.40;99.90;;;;;;5058225;28;20462;-69
2023/11/28 05:40:45;;;;;;;15.47;13.97;;;0.40;99.90;;;;;;5057905;28;20544;-69
2023/11/28 05:43:12;;;;;;;16.13;14.53;;;0.40;99.90;;;;;;5057935;28;20468;-68
2023/11/28 05:45:39;;;;;;;14.30;13.00;;;0.30;99.90;;;;;;5058169;28;20466;-68
2023/11/28 05:48:07;;;;;;;15.70;14.10;;;0.30;99.90;;;;;;5064311;28;20520;-68
2023/11/28 05:50:34;;;;;;;15.87;14.00;;;0.30;99.90;;;;;;5077713;28;20466;-68
2023/11/28 05:53:02;;;;;;;15.83;14.33;;;0.30;99.90;;;;;;5077610;28;20540;-69
2023/11/28 05:55:30;;;;;;;19.47;16.53;;;0.30;99.90;;;;;;5077729;28;20759;-68
2023/11/28 05:57:57;;;;;;;18.70;16.90;;;0.30;99.90;;;;;;5077101;28;20446;-69
2023/11/28 06:00:25;;;;;;;21.20;17.43;;;0.20;99.90;;;;;;5076890;28;20461;-67
2023/11/28 06:02:52;;;;;;;18.83;16.57;;;0.20;99.90;;;;;;5077604;28;20464;-69
2023/11/28 06:05:22;;;;;;;19.53;17.43;;;0.20;99.90;;;;;;5077867;28;20464;-68
2023/11/28 06:07:49;;;;;;;19.63;17.33;;;0.20;99.90;;;;;;5077151;28;20492;-68
2023/11/28 06:10:18;;;;;;;18.77;16.77;;;0.30;99.90;;;;;;5077354;28;20496;-67
2023/11/28 06:12:45;;;;;;;20.60;17.60;;;0.20;99.90;;;;;;5077467;28;20826;-69
2023/11/28 06:15:13;;;;;;;20.00;17.70;;;0.20;99.90;;;;;;5077263;28;20506;-69
2023/11/28 06:17:40;;;;;;;21.57;17.13;;;0.20;99.90;;;;;;5077585;28;20486;-68
2023/11/28 06:20:08;;;;;;;22.07;18.80;;;0.10;99.90;;;;;;5076950;28;20457;-69
2023/11/28 06:22:35;;;;;;;22.33;17.93;;;0.20;99.90;;;;;;5074997;28;20460;-69
2023/11/28 06:25:03;;;;;;;18.47;16.40;;;0.20;99.90;;;;;;5075140;28;20556;-68
2023/11/28 06:27:31;;;;;;;20.93;18.37;;;0.20;99.90;;;;;;5075561;28;20460;-68
2023/11/28 06:29:59;;;;;;;20.20;17.73;;;0.20;99.90;;;;;;5075631;28;20458;-68
2023/11/28 06:32:26;;;;;;;17.27;14.20;;;0.30;99.90;;;;;;5076307;28;20475;-68
2023/11/28 06:34:53;;;;;;;17.33;15.63;;;0.20;99.90;;;;;;5076469;28;20947;-69
2023/11/28 06:37:21;;;;;;;19.03;16.70;;;0.20;99.90;;;;;;5076398;28;20464;-68
2023/11/28 06:39:50;;;;;;;18.13;15.90;;;0.20;99.90;;;;;;5076806;28;20440;-69
2023/11/28 06:42:17;;;;;;;17.57;15.77;;;0.20;99.90;;;;;;5077102;28;20548;-69
2023/11/28 06:44:45;;;;;;;18.53;14.53;;;0.10;99.90;;;;;;5077466;28;20438;-69
2023/11/28 06:47:13;;;;;;;18.70;14.00;;;0.10;99.90;;;;;;5077605;28;20460;-69
2023/11/28 06:49:44;;;;;;;21.37;14.17;;;0.10;99.90;;;;;;5077445;28;20497;-69
2023/11/28 06:52:13;;;;;;;14.23;12.77;;;0.10;99.90;;;;;;5077484;28;20558;-69
2023/11/28 06:54:42;;;;;;;14.60;13.13;;;0.10;99.90;;;;;;5076712;28;20518;-70
2023/11/28 06:57:09;;;;;;;14.23;12.93;;;0.10;99.90;;;;;;5077018;28;20504;-69
2023/11/28 06:59:37;;;;;;;14.80;12.60;;;0.00;99.90;;;;;;5077083;28;20431;-68
2023/11/28 07:02:06;;;;;;;13.70;12.10;;;0.00;99.90;;;;;;5077168;28;20441;-69
2023/11/28 07:04:33;;;;;;;16.90;12.93;;;0.10;99.90;;;;;;5076883;28;20430;-69
2023/11/28 07:07:00;;;;;;;13.20;11.80;;;0.10;99.90;;;;;;5074077;28;20487;-69
2023/11/28 07:09:27;;;;;;;13.50;11.13;;;0.00;99.90;;;;;;5079152;28;20555;-69
2023/11/28 07:11:55;;;;;;;13.40;12.07;;;0.00;99.90;;;;;;5081196;28;20435;-69
2023/11/28 07:14:22;;;;;;;14.73;11.73;;;0.00;99.90;;;;;;5081417;28;20559;-69
2023/11/28 07:16:49;;;;;;;13.80;11.77;;;0.00;99.90;;;;;;5081213;28;20459;-69
2023/11/28 07:19:18;;;;;;;14.77;12.97;;;0.00;99.90;;;;;;5081193;28;20435;-68
2023/11/28 07:21:46;;;;;;;13.33;11.97;;;0.00;99.90;;;;;;5080745;28;20490;-69
2023/11/28 07:24:13;;;;;;;13.67;12.27;;;0.00;99.90;;;;;;5080878;28;20464;-69
2023/11/28 07:26:40;;;;;;;13.30;11.70;;;-0.10;99.90;;;;;;5081042;28;20919;-69
2023/11/28 07:29:08;;;;;;;14.77;13.20;;;-0.10;99.90;;;;;;5080832;28;20461;-68
2023/11/28 07:31:35;;;;;;;12.83;11.47;;;-0.10;99.90;;;;;;5080316;28;20527;-69
2023/11/28 07:34:02;;;;;;;13.23;11.87;;;-0.20;99.90;;;;;;5080754;28;20951;-68
2023/11/28 07:36:31;;;;;;;13.47;12.13;;;-0.10;99.90;;;;;;5080628;28;20513;-69
2023/11/28 07:38:58;;;;;;;14.73;12.27;;;-0.10;99.90;;;;;;5080744;28;20558;-68
2023/11/28 07:41:25;;;;;;;11.83;10.63;;;-0.10;99.90;;;;;;5080502;28;20442;-68
2023/11/28 07:43:53;;;;;;;12.30;10.77;;;-0.10;99.90;;;;;;5080317;28;20520;-68
2023/11/28 07:46:20;;;;;;;12.20;11.00;;;-0.10;99.90;;;;;;5080080;28;20465;-67
2023/11/28 07:48:47;;;;;;;11.93;10.20;;;-0.20;99.90;;;;;;5079727;28;20546;-68
2023/11/28 07:51:15;;;;;;;11.77;10.60;;;-0.20;99.90;;;;;;5079599;28;20458;-69
2023/11/28 07:53:43;;;;;;;12.07;10.70;;;-0.20;99.90;;;;;;5079522;28;20522;-68
2023/11/28 07:56:11;;;;;;;11.00;9.97;;;-0.20;99.90;;;;;;5080261;28;20464;-67
2023/11/28 07:58:38;;;;;;;11.40;9.90;;;-0.10;99.90;;;;;;5080057;28;20466;-67
2023/11/28 08:01:07;;;;;;;12.93;10.17;;;-0.30;99.90;;;;;;5079577;28;20450;-67
2023/11/28 08:03:34;;;;;;;11.43;9.80;;;-0.30;99.90;;;;;;5079151;28;20470;-67
2023/11/28 08:06:03;;;;;;;10.70;9.60;;;-0.30;99.90;;;;;;5079828;28;20947;-68
2023/11/28 08:08:30;;;;;;;13.37;9.17;;;-0.30;99.90;;;;;;5077568;28;20553;-66
2023/11/28 08:10:59;;;;;;;11.47;9.80;;;-0.20;99.90;;;;;;5077243;28;20468;-66
2023/11/28 08:13:27;;;;;;;11.80;10.50;;;-0.30;99.90;;;;;;5076240;28;20463;-66
2023/11/28 08:15:57;;;;;;;12.30;10.67;;;-0.20;99.90;;;;;;5076068;28;20453;-66
2023/11/28 08:18:26;;;;;;;12.60;10.27;;;-0.20;99.90;;;;;;5076548;28;20472;-66
2023/11/28 08:20:53;;;;;;;9.53;8.33;;;-0.20;99.90;;;;;;5075056;28;21161;-66
2023/11/28 08:23:20;;;;;;;9.50;8.33;;;-0.10;99.90;;;;;;5076579;28;20913;-66
2023/11/28 08:25:49;;;;;;;9.00;8.10;;;-0.20;99.90;;;;;;5075868;28;20905;-66
2023/11/28 08:28:18;;;;;;;9.63;7.93;;;-0.20;99.90;;;;;;5076812;28;20791;-67
2023/11/28 08:30:45;;;;;;;9.10;8.20;;;-0.20;99.90;;;;;;5078027;28;20608;-67
2023/11/28 08:33:13;;;;;;;10.63;9.53;;;-0.30;99.90;;;;;;5078265;28;20526;-66
2023/11/28 08:35:42;;;;;;;9.80;8.10;;;-0.20;99.90;;;;;;5077983;28;20498;-66
2023/11/28 08:38:10;;;;;;;9.50;7.77;;;-0.20;99.90;;;;;;5077728;28;20562;-66
2023/11/28 08:40:37;;;;;;;10.33;7.77;;;-0.30;99.90;;;;;;5078592;28;20555;-67
2023/11/28 08:43:05;;;;;;;8.43;7.50;;;-0.20;99.90;;;;;;5079778;28;20457;-67
2023/11/28 08:45:33;;;;;;;8.80;7.47;;;-0.30;99.90;;;;;;5080013;28;20460;-67
2023/11/28 08:48:01;;;;;;;7.50;6.70;;;-0.30;99.90;;;;;;5079096;28;20532;-66
2023/11/28 08:50:28;;;;;;;9.10;7.67;;;-0.30;99.90;;;;;;5079075;28;20541;-66
2023/11/28 08:52:55;;;;;;;8.73;7.00;;;-0.20;99.90;;;;;;5079215;28;20554;-67
2023/11/28 08:55:23;;;;;;;8.43;7.40;;;-0.20;99.90;;;;;;5079262;28;20923;-67
2023/11/28 08:57:50;;;;;;;9.17;8.20;;;-0.20;99.90;;;;;;5079136;28;20463;-67
2023/11/28 09:00:18;;;;;;;7.60;6.43;;;-0.10;99.90;;;;;;5078374;28;20530;-66
2023/11/28 09:02:47;;;;;;;8.50;7.60;;;-0.20;99.90;;;;;;5078837;28;20464;-66
2023/11/28 09:05:15;;;;;;;8.07;6.90;;;-0.10;99.90;;;;;;5078190;28;20498;-66
2023/11/28 09:07:42;;;;;;;7.87;6.50;;;-0.20;99.90;;;;;;5077775;28;20576;-67
2023/11/28 09:10:11;;;;;;;6.30;5.70;;;-0.30;99.90;;;;;;5077898;28;20489;-67
2023/11/28 09:12:39;;;;;;;8.90;7.10;;;-0.20;99.90;;;;;;5078827;28;20567;-66
2023/11/28 09:15:07;;;;;;;7.63;6.73;;;-0.20;99.90;;;;;;5078352;28;20564;-66
2023/11/28 09:17:34;;;;;;;7.53;6.10;;;-0.10;99.90;;;;;;5078264;28;20554;-66
2023/11/28 09:20:03;;;;;;;10.50;6.70;;;-0.10;99.90;;;;;;5078004;28;20487;-66
2023/11/28 09:22:31;;;;;;;7.40;5.80;;;-0.20;99.90;;;;;;5077806;28;20550;-66
2023/11/28 09:24:58;;;;;;;9.03;6.07;;;-0.20;99.90;;;;;;5077327;28;20461;-66
2023/11/28 09:27:25;;;;;;;7.07;5.87;;;-0.20;99.90;;;;;;5076846;28;20548;-66
2023/11/28 09:29:53;;;;;;;7.57;6.20;;;-0.20;99.90;;;;;;5077071;28;20461;-66
2023/11/28 09:32:20;;;;;;;7.00;6.27;;;-0.10;99.90;;;;;;5076174;28;20539;-67
2023/11/28 09:34:48;;;;;;;7.23;6.43;;;-0.10;99.90;;;;;;5078569;28;20470;-66
2023/11/28 09:37:17;;;;;;;7.67;6.60;;;-0.20;99.90;;;;;;5078485;28;20459;-66
2023/11/28 09:39:44;;;;;;;8.03;6.37;;;-0.10;99.90;;;;;;5078239;28;20491;-66
2023/11/28 09:42:12;;;;;;;6.70;6.00;;;-0.10;99.90;;;;;;5078537;28;20459;-66
2023/11/28 09:44:45;;;;;;;8.20;6.27;;;-0.10;99.90;;;;;;5078479;28;20507;-66
2023/11/28 09:47:14;;;;;;;7.13;6.23;;;-0.10;99.90;;;;;;5078902;28;20891;-66
2023/11/28 09:49:42;;;;;;;6.43;5.80;;;-0.10;99.90;;;;;;5078199;28;20457;-66
2023/11/28 09:52:10;;;;;;;9.20;7.10;;;0.00;99.90;;;;;;5078017;28;20968;-66
2023/11/28 09:54:40;;;;;;;7.80;6.90;;;0.00;99.90;;;;;;5078415;28;20464;-66
2023/11/28 09:57:09;;;;;;;7.40;6.60;;;-0.10;99.90;;;;;;5078372;28;20475;-66
2023/11/28 09:59:39;;;;;;;6.63;5.93;;;0.00;99.90;;;;;;5078070;28;20465;-66
2023/11/28 10:02:06;;;;;;;7.10;6.40;;;0.00;99.90;;;;;;5077525;28;20538;-67
2023/11/28 10:04:34;;;;;;;7.30;6.43;;;0.00;99.90;;;;;;5077907;28;20560;-67
2023/11/28 10:07:03;;;;;;;7.87;6.70;;;0.00;99.90;;;;;;5077135;28;20525;-66
2023/11/28 10:09:33;;;;;;;6.33;5.60;;;0.10;99.90;;;;;;5077017;28;20819;-65
2023/11/28 10:12:06;;;;;;;7.67;5.90;;;0.10;99.90;;;;;;5077092;28;20566;-66
2023/11/28 10:14:34;;;;;;;7.50;6.20;;;0.10;99.90;;;;;;5076939;28;20511;-65
2023/11/28 10:17:01;;;;;;;8.83;5.50;;;0.10;99.90;;;;;;5076748;28;20558;-66
2023/11/28 10:19:29;;;;;;;6.10;5.30;;;0.00;99.90;;;;;;5078337;28;20454;-66
2023/11/28 10:21:57;;;;;;;6.73;5.80;;;0.10;99.90;;;;;;5078572;28;20464;-65
2023/11/28 10:24:25;;;;;;;7.50;5.57;;;0.20;99.90;;;;;;5080541;28;20471;-66
2023/11/28 10:26:56;;;;;;;6.93;5.90;;;0.30;99.90;;;;;;5084004;28;20559;-66
2023/11/28 10:29:28;;;;;;;7.40;6.40;;;0.50;99.90;;;;;;5087254;28;20439;-66
2023/11/28 10:31:55;;;;;;;7.93;5.70;;;0.60;99.90;;;;;;5089504;28;20492;-66
2023/11/28 10:34:23;;;;;;;8.27;6.80;;;0.70;99.90;;;;;;5085457;28;20542;-65
2023/11/28 10:36:50;;;;;;;6.83;5.90;;;0.80;99.90;;;;;;5079997;28;20515;-66
2023/11/28 10:39:19;;;;;;;8.03;5.83;;;0.70;99.90;;;;;;5082924;28;20497;-65
2023/11/28 10:41:47;;;;;;;7.43;6.63;;;0.50;99.90;;;;;;5088762;28;20460;-65
2023/11/28 10:44:14;;;;;;;6.53;5.90;;;0.60;99.90;;;;;;5087679;28;21041;-66
2023/11/28 10:46:43;;;;;;;7.87;6.07;;;0.50;99.90;;;;;;5087549;28;20461;-65
2023/11/28 10:49:10;;;;;;;7.23;6.13;;;0.60;99.90;;;;;;5086983;28;20532;-65
2023/11/28 10:51:37;;;;;;;7.73;6.53;;;0.70;99.90;;;;;;5085836;28;20555;-65
2023/11/28 10:54:07;;;;;;;7.40;6.40;;;0.70;99.90;;;;;;5088964;28;20457;-66
2023/11/28 10:56:45;;;;;;;9.67;7.00;;;0.80;99.90;;;;;;5087306;28;20529;-66
2023/11/28 10:59:21;;;;;;;6.30;5.57;;;0.80;99.90;;;;;;5087879;28;20465;-66
2023/11/28 11:01:51;;;;;;;6.83;6.03;;;0.70;99.90;;;;;;5087488;28;20711;-66
2023/11/28 11:04:19;;;;;;;6.23;5.47;;;0.60;99.90;;;;;;5086374;28;20457;-65
2023/11/28 11:06:46;;;;;;;8.30;6.60;;;0.60;99.90;;;;;;5086969;28;20457;-66
2023/11/28 11:09:14;;;;;;;6.53;5.00;;;0.70;99.90;;;;;;5085332;28;20445;-65
2023/11/28 11:11:43;;;;;;;8.57;6.87;;;0.70;99.90;;;;;;5086395;28;20524;-66
2023/11/28 11:14:18;;;;;;;8.40;6.40;;;0.70;99.90;;;;;;5088194;28;20507;-66
2023/11/28 11:16:55;;;;;;;7.70;6.53;;;0.70;99.90;;;;;;5086876;28;20472;-66
2023/11/28 11:19:24;;;;;;;7.70;6.10;;;0.80;99.90;;;;;;5083276;28;20465;-66
2023/11/28 11:22:00;;;;;;;6.93;5.93;;;0.70;99.90;;;;;;5081445;28;20457;-66
2023/11/28 11:24:28;;;;;;;7.90;6.00;;;0.80;99.90;;;;;;5084310;28;20469;-66
2023/11/28 11:26:58;;;;;;;7.90;5.13;;;0.70;99.90;;;;;;5085729;28;20432;-66
2023/11/28 11:29:40;;;;;;;6.67;5.97;;;0.60;99.90;;;;;;5085912;28;20867;-66
2023/11/28 11:32:13;;;;;;;7.37;5.80;;;0.60;99.90;;;;;;5084813;28;20496;-66
2023/11/28 11:34:45;;;;;;;7.97;6.13;;;0.60;99.90;;;;;;5086101;28;20457;-66
2023/11/28 11:37:14;;;;;;;8.10;6.37;;;0.60;99.90;;;;;;5084561;28;20522;-66
2023/11/28 11:39:43;;;;;;;7.53;5.50;;;0.70;99.90;;;;;;5084458;28;20551;-66
2023/11/28 11:42:13;;;;;;;6.50;5.50;;;0.70;99.90;;;;;;5085501;28;20477;-66
2023/11/28 11:44:46;;;;;;;7.07;5.40;;;0.60;99.90;;;;;;5084274;28;20461;-66
2023/11/28 11:47:20;;;;;;;7.13;5.37;;;0.60;99.90;;;;;;5080998;28;20458;-66
2023/11/28 11:49:49;;;;;;;8.47;5.57;;;0.60;99.90;;;;;;5081336;28;20471;-66
2023/11/28 11:52:18;;;;;;;8.70;5.80;;;0.60;99.90;;;;;;5081665;28;20555;-65
2023/11/28 11:54:46;;;;;;;6.67;5.43;;;0.60;99.90;;;;;;5087210;28;20489;-65
2023/11/28 11:57:14;;;;;;;6.20;5.20;;;0.50;99.90;;;;;;5088018;28;20434;-65
2023/11/28 11:59:42;;;;;;;5.93;5.33;;;0.50;99.90;;;;;;5085901;28;20467;-65
2023/11/28 12:02:10;;;;;;;6.40;4.97;;;0.50;99.90;;;;;;5086275;28;20475;-65
2023/11/28 12:04:43;;;;;;;8.80;5.80;;;0.50;1.00;;;;;;5084977;28;20461;-65
2023/11/28 12:07:12;;;;;;;6.63;5.73;;;0.60;99.90;;;;;;5083527;28;20476;-65
2023/11/28 12:09:41;;;;;;;6.00;5.40;;;0.70;99.90;;;;;;5084631;28;20977;-65
2023/11/28 12:12:12;;;;;;;6.83;5.80;;;0.60;1.00;;;;;;5082472;28;20517;-65
2023/11/28 12:14:40;;;;;;;6.47;5.47;;;0.70;1.00;;;;;;5080541;28;20465;-65
2023/11/28 12:17:07;;;;;;;8.73;5.10;;;0.70;99.90;;;;;;5081184;28;20491;-65
2023/11/28 12:19:35;;;;;;;5.67;5.07;;;0.80;1.00;;;;;;5080637;28;20463;-65
2023/11/28 12:22:05;;;;;;;5.90;5.30;;;0.80;1.00;;;;;;5072095;28;20533;-65
2023/11/28 12:24:33;;;;;;;6.70;4.27;;;0.80;99.90;;;;;;5079690;28;20747;-65
2023/11/28 12:27:02;;;;;;;6.70;5.37;;;0.70;99.90;;;;;;5078010;28;20517;-66
2023/11/28 12:29:31;;;;;;;6.50;5.03;;;0.70;99.90;;;;;;5084195;28;20739;-66
2023/11/28 12:31:59;;;;;;;5.23;4.73;;;0.80;99.90;;;;;;5086954;28;20489;-67
2023/11/28 12:34:27;;;;;;;5.10;4.33;;;0.80;99.90;;;;;;5083464;28;20457;-66
2023/11/28 12:36:56;;;;;;;5.87;4.77;;;0.80;81.30;;;;;;5083086;28;20458;-66
2023/11/28 12:39:26;;;;;;;5.40;4.87;;;0.80;76.60;;;;;;5078877;28;20764;-66
2023/11/28 12:41:55;;;;;;;6.50;5.00;;;0.80;68.20;;;;;;5079942;28;20466;-64
2023/11/28 12:44:24;;;;;;;6.43;5.00;;;0.90;99.90;;;;;;5078875;28;20461;-65
2023/11/28 12:46:52;;;;;;;7.90;5.33;;;1.00;99.90;;;;;;5078915;28;20461;-65
2023/11/28 12:49:21;;;;;;;5.70;4.30;;;1.00;95.90;;;;;;5079104;28;20457;-65